Carnival Freedom — 3EBL5 — position and weather

sailwx.info

Track history (hours):
 
Tides and Currents Weather Stations Pressure Air Temp Water Temp Dewpoint Dewpoint Depression Visibility Wind Speed Wind Dir Waves Ship Positions

Carnival Freedom

Last reported at 2018-Feb-20 01:10 UTC. Time now 2018-Feb-23 14:29 UTC.
Position N 20°20' W 087°05'.

Type: Ship. MMSI: 371154000.

Date/timePositionNaut miles runAvg speedWind from/ knotsBaromVisibWave heightAir tempDewpointWater temp
2018-Feb-20 01:10N 20°20' W 087°05'317.5
2018-Feb-20 01:00N 20°23' W 087°04'713.9
2018-Feb-20 00:30N 20°29' W 087°01'2 3.6
2018-Feb-19 23:59N 20°29' W 086°59'0 0.0
2018-Feb-19 23:29N 20°29' W 086°59'0 0.0
2018-Feb-19 22:59N 20°29' W 086°59'0 0.0
2018-Feb-19 22:29N 20°29' W 086°59'0 0.0
2018-Feb-19 21:59N 20°29' W 086°59'0 0.0
2018-Feb-19 21:23N 20°29' W 086°59'0 0.0
2018-Feb-19 20:59N 20°29' W 086°59'0 0.0
2018-Feb-19 20:29N 20°29' W 086°59'0 0.0
2018-Feb-19 19:59N 20°29' W 086°59'0 0.0
2018-Feb-19 19:29N 20°29' W 086°59'0 0.0
2018-Feb-19 18:59N 20°29' W 086°59'0 0.0
2018-Feb-19 18:29N 20°29' W 086°59'0 0.0
2018-Feb-19 17:59N 20°29' W 086°59'0 0.0
2018-Feb-19 17:29N 20°29' W 086°59'0 0.0
2018-Feb-19 16:59N 20°29' W 086°59'0 0.0
2018-Feb-19 16:29N 20°29' W 086°59'0 0.0
2018-Feb-19 15:59N 20°29' W 086°59'0 0.0
2018-Feb-19 15:29N 20°29' W 086°59'0 0.0
2018-Feb-19 15:00N 20°29' W 086°59'1 2.4
2018-Feb-19 14:30N 20°30' W 086°59'4 8.3
2018-Feb-19 14:00N 20°34' W 086°59'914.6
2018-Feb-19 13:24N 20°41' W 086°54'56317.6
2018-Feb-18 05:22N 28°16' W 092°58'719.1
2018-Feb-18 04:59N 28°20' W 093°05'1119.0
2018-Feb-18 04:23N 28°26' W 093°15'719.1
2018-Feb-18 04:01N 28°30' W 093°22'1019.3
2018-Feb-18 03:30N 28°36' W 093°31'1019.1
2018-Feb-18 03:00N 28°42' W 093°40'1018.7
2018-Feb-18 02:28N 28°47' W 093°49'918.6
2018-Feb-18 02:00N 28°53' W 093°57'918.4
2018-Feb-18 01:30N 28°58' W 094°06'917.8
2018-Feb-18 01:00N 29°03' W 094°14'917.4
2018-Feb-18 00:29N 29°08' W 094°22'917.1
2018-Feb-17 23:59N 29°12' W 094°31'815.1
2018-Feb-17 23:28N 29°18' W 094°37'510.6
2018-Feb-17 23:00N 29°21' W 094°42'5 9.1
2018-Feb-17 22:30N 29°19' W 094°47'1 1.4
2018-Feb-17 22:00N 29°19' W 094°48'0 0.0
2018-Feb-17 21:24N 29°19' W 094°48'0 0.0
2018-Feb-17 14:09N 29°19' W 094°48'0 0.8
2018-Feb-17 13:59N 29°19' W 094°48'1 1.9
2018-Feb-17 13:21N 29°20' W 094°47'1911.3
2018-Feb-17 11:41N 29°12' W 094°27'1711.8
2018-Feb-17 10:13N 29°02' W 094°11'514.6
2018-Feb-17 09:55N 28°59' W 094°07'817.8
2018-Feb-17 09:26N 28°54' W 093°59'1019.3
2018-Feb-17 08:57N 28°49' W 093°50'1019.2
2018-Feb-17 08:25N 28°43' W 093°40'1219.2
2018-Feb-17 07:47N 28°36' W 093°29'619.4
2018-Feb-17 07:29N 28°33' W 093°24'41521.3
2018-Feb-16 12:00N 23°48' W 087°48'19818.3 360 / 151022.010.8 26.018.224.0
2018-Feb-16 01:09N 20°35' W 086°58'215.9
2018-Feb-16 00:59N 20°33' W 086°59'4 8.2
2018-Feb-16 00:31N 20°29' W 086°59'0 0.6
2018-Feb-15 23:58N 20°29' W 086°59'0 0.0
2018-Feb-15 23:28N 20°29' W 086°59'0 0.0
2018-Feb-15 22:58N 20°29' W 086°59'0 0.0
2018-Feb-15 22:28N 20°29' W 086°59'0 0.0
2018-Feb-15 21:58N 20°29' W 086°59'0 0.0
2018-Feb-15 21:28N 20°29' W 086°59'0 0.0
2018-Feb-15 20:58N 20°29' W 086°59'0 0.0
2018-Feb-15 20:28N 20°29' W 086°59'0 0.0
2018-Feb-15 19:58N 20°29' W 086°59'0 0.0
2018-Feb-15 19:28N 20°29' W 086°59'0 0.0
2018-Feb-15 18:58N 20°29' W 086°59'0 0.0
2018-Feb-15 18:28N 20°29' W 086°59'0 0.0
2018-Feb-15 17:58N 20°29' W 086°59'0 0.0
2018-Feb-15 17:25N 20°29' W 086°59'0 0.0
2018-Feb-15 16:58N 20°29' W 086°59'0 0.0
2018-Feb-15 16:30N 20°29' W 086°59'0 0.1
2018-Feb-15 16:00N 20°29' W 086°59'3 5.5
2018-Feb-15 15:31N 20°31' W 086°60'5 9.4
2018-Feb-15 15:00N 20°35' W 086°58'  
2018-Feb-11 02:13N 28°47' W 093°48'2818.6
2018-Feb-11 00:44N 29°03' W 094°13'417.7
2018-Feb-11 00:31N 29°05' W 094°17'1417.4
2018-Feb-10 23:44N 29°11' W 094°31'417.7
2018-Feb-10 23:30N 29°14' W 094°34'12 1.2
2018-Feb-10 13:04N 29°19' W 094°47'0 2.4
2018-Feb-10 13:00N 29°19' W 094°47'3111.4
2018-Feb-10 10:19N 29°05' W 094°15'616.0
2018-Feb-10 09:57N 29°02' W 094°10'816.0
2018-Feb-10 09:28N 28°57' W 094°03'716.1
2018-Feb-10 09:00N 28°53' W 093°56'  
Track history (hours):
 
Tides and Currents Weather Stations Pressure Air Temp Water Temp Dewpoint Dewpoint Depression Visibility Wind Speed Wind Dir Waves Ship Positions

Carnival Freedom

Last reported at 2018-Feb-20 01:10 UTC. Time now 2018-Feb-23 14:29 UTC.
Position N 20°20' W 087°05'.

Type: Ship. MMSI: 371154000.

Date/timePositionNaut miles runAvg speedWind from/ knotsBaromVisibWave heightAir tempDewpointWater temp
2018-Feb-20 01:10N 20°20' W 087°05'317.5
2018-Feb-20 01:00N 20°23' W 087°04'713.9
2018-Feb-20 00:30N 20°29' W 087°01'2 3.6
2018-Feb-19 23:59N 20°29' W 086°59'0 0.0
2018-Feb-19 23:29N 20°29' W 086°59'0 0.0
2018-Feb-19 22:59N 20°29' W 086°59'0 0.0
2018-Feb-19 22:29N 20°29' W 086°59'0 0.0
2018-Feb-19 21:59N 20°29' W 086°59'0 0.0
2018-Feb-19 21:23N 20°29' W 086°59'0 0.0
2018-Feb-19 20:59N 20°29' W 086°59'0 0.0
2018-Feb-19 20:29N 20°29' W 086°59'0 0.0
2018-Feb-19 19:59N 20°29' W 086°59'0 0.0
2018-Feb-19 19:29N 20°29' W 086°59'0 0.0
2018-Feb-19 18:59N 20°29' W 086°59'0 0.0
2018-Feb-19 18:29N 20°29' W 086°59'0 0.0
2018-Feb-19 17:59N 20°29' W 086°59'0 0.0
2018-Feb-19 17:29N 20°29' W 086°59'0 0.0
2018-Feb-19 16:59N 20°29' W 086°59'0 0.0
2018-Feb-19 16:29N 20°29' W 086°59'0 0.0
2018-Feb-19 15:59N 20°29' W 086°59'0 0.0
2018-Feb-19 15:29N 20°29' W 086°59'0 0.0
2018-Feb-19 15:00N 20°29' W 086°59'1 2.4
2018-Feb-19 14:30N 20°30' W 086°59'4 8.3
2018-Feb-19 14:00N 20°34' W 086°59'914.6
2018-Feb-19 13:24N 20°41' W 086°54'56317.6
2018-Feb-18 05:22N 28°16' W 092°58'719.1
2018-Feb-18 04:59N 28°20' W 093°05'1119.0
2018-Feb-18 04:23N 28°26' W 093°15'719.1
2018-Feb-18 04:01N 28°30' W 093°22'1019.3
2018-Feb-18 03:30N 28°36' W 093°31'1019.1
2018-Feb-18 03:00N 28°42' W 093°40'1018.7
2018-Feb-18 02:28N 28°47' W 093°49'918.6
2018-Feb-18 02:00N 28°53' W 093°57'918.4
2018-Feb-18 01:30N 28°58' W 094°06'917.8
2018-Feb-18 01:00N 29°03' W 094°14'917.4
2018-Feb-18 00:29N 29°08' W 094°22'917.1
2018-Feb-17 23:59N 29°12' W 094°31'815.1
2018-Feb-17 23:28N 29°18' W 094°37'510.6
2018-Feb-17 23:00N 29°21' W 094°42'5 9.1
2018-Feb-17 22:30N 29°19' W 094°47'1 1.4
2018-Feb-17 22:00N 29°19' W 094°48'0 0.0
2018-Feb-17 21:24N 29°19' W 094°48'0 0.0
2018-Feb-17 14:09N 29°19' W 094°48'0 0.8
2018-Feb-17 13:59N 29°19' W 094°48'1 1.9
2018-Feb-17 13:21N 29°20' W 094°47'1911.3
2018-Feb-17 11:41N 29°12' W 094°27'1711.8
2018-Feb-17 10:13N 29°02' W 094°11'514.6
2018-Feb-17 09:55N 28°59' W 094°07'817.8
2018-Feb-17 09:26N 28°54' W 093°59'1019.3
2018-Feb-17 08:57N 28°49' W 093°50'1019.2
2018-Feb-17 08:25N 28°43' W 093°40'1219.2
2018-Feb-17 07:47N 28°36' W 093°29'619.4
2018-Feb-17 07:29N 28°33' W 093°24'41521.3
2018-Feb-16 12:00N 23°48' W 087°48'19818.3 360 / 151022.010.8 26.018.224.0
2018-Feb-16 01:09N 20°35' W 086°58'215.9
2018-Feb-16 00:59N 20°33' W 086°59'4 8.2
2018-Feb-16 00:31N 20°29' W 086°59'0 0.6
2018-Feb-15 23:58N 20°29' W 086°59'0 0.0
2018-Feb-15 23:28N 20°29' W 086°59'0 0.0
2018-Feb-15 22:58N 20°29' W 086°59'0 0.0
2018-Feb-15 22:28N 20°29' W 086°59'0 0.0
2018-Feb-15 21:58N 20°29' W 086°59'0 0.0
2018-Feb-15 21:28N 20°29' W 086°59'0 0.0
2018-Feb-15 20:58N 20°29' W 086°59'0 0.0
2018-Feb-15 20:28N 20°29' W 086°59'0 0.0
2018-Feb-15 19:58N 20°29' W 086°59'0 0.0
2018-Feb-15 19:28N 20°29' W 086°59'0 0.0
2018-Feb-15 18:58N 20°29' W 086°59'0 0.0
2018-Feb-15 18:28N 20°29' W 086°59'0 0.0
2018-Feb-15 17:58N 20°29' W 086°59'0 0.0
2018-Feb-15 17:25N 20°29' W 086°59'0 0.0
2018-Feb-15 16:58N 20°29' W 086°59'0 0.0
2018-Feb-15 16:30N 20°29' W 086°59'0 0.1
2018-Feb-15 16:00N 20°29' W 086°59'3 5.5
2018-Feb-15 15:31N 20°31' W 086°60'5 9.4
2018-Feb-15 15:00N 20°35' W 086°58'  
2018-Feb-11 02:13N 28°47' W 093°48'2818.6
2018-Feb-11 00:44N 29°03' W 094°13'417.7
2018-Feb-11 00:31N 29°05' W 094°17'1417.4
2018-Feb-10 23:44N 29°11' W 094°31'417.7
2018-Feb-10 23:30N 29°14' W 094°34'12 1.2
2018-Feb-10 13:04N 29°19' W 094°47'0 2.4
2018-Feb-10 13:00N 29°19' W 094°47'3111.4
2018-Feb-10 10:19N 29°05' W 094°15'616.0
2018-Feb-10 09:57N 29°02' W 094°10'816.0
2018-Feb-10 09:28N 28°57' W 094°03'716.1
2018-Feb-10 09:00N 28°53' W 093°56'  

Dump ship's entire track history